Portada
METAR-TAF:

METAR-TAF

Aeropuertos :

Aeropuerto de Reggio di Calabria

Regio de Calabria, Italia

latitud: 38-04N, longitud: 015-39E, altitud: 11 m

Observación

El informe se hizo hace 1 hora y 19 minutos, a las 10:50 UTC
Viento 14 kt del norte
Temperatura 16°C
Humedad 59%
Presión 1020 hPa
Visibilidad 10 km o más
Nubes dispersas a una altura de 4000 ft

METAR: LICR 201050Z 01014KT 9999 SCT040 16/08 Q1020

Hora: 13:09 (12:09 UTC)

Pronóstico

El informe se hizo hace 1 hora y 9 minutos, a las 11:00 UTC
Pronóstico válido del 20 a las 12 UTC al 21 a las 12 UTC
Viento 12 kt del norte
Visibilidad 10 km o más
Nubes dispersas a una altura de 3000 ft

TAF: LICR 201100Z 2012/2112 35012KT 9999 SCT030

Observaciones y pronósticos meteorológicos de más de 4000 aeropuertos (mensajes METAR y TAF).

Los puntos amarillos y rojos representan las estaciones disponibles.

Ponga el ratón en el punto deseado para ver el nombre de la estación.

Haga clic para ver las observaciones y los pronósticos meteorológicos.

Para cambiar el mapa : haga clic en los botones verdes con una cruz de color negro para hacer un zoom, en el botón verde con un guión para alejar o en las flechas verdes para mapas adyacentes.


METAR-TAF: